createdAt,value
2023-03-02T00:00:16.192Z,-1.40
2023-03-02T00:02:46.502Z,-1.40
2023-03-02T00:05:15.535Z,-1.40
2023-03-02T00:07:44.610Z,-1.40
2023-03-02T00:10:13.549Z,-1.50
2023-03-02T00:12:42.533Z,-1.50
2023-03-02T00:15:11.926Z,-1.60
2023-03-02T00:17:40.649Z,-1.60
2023-03-02T00:20:12.598Z,-1.70
2023-03-02T00:22:42.760Z,-1.70
2023-03-02T00:25:12.676Z,-1.70
2023-03-02T00:27:41.626Z,-1.80
2023-03-02T00:30:12.789Z,-1.70
2023-03-02T00:32:41.735Z,-1.70
2023-03-02T00:35:12.095Z,-1.70
2023-03-02T00:37:40.908Z,-1.80
2023-03-02T00:40:11.428Z,-1.80
2023-03-02T00:42:40.480Z,-1.80
2023-03-02T00:45:10.515Z,-1.80
2023-03-02T00:47:41.471Z,-1.80
2023-03-02T00:50:12.635Z,-1.80
2023-03-02T00:52:41.466Z,-1.90
2023-03-02T00:55:10.856Z,-1.80
2023-03-02T00:57:40.335Z,-1.90
2023-03-02T01:00:10.596Z,-1.90
2023-03-02T01:02:44.213Z,-2.00
2023-03-02T01:05:18.443Z,-2.00
2023-03-02T01:07:47.310Z,-2.00
2023-03-02T01:10:16.396Z,-2.00
2023-03-02T01:12:45.388Z,-2.00
2023-03-02T01:15:14.348Z,-2.00
2023-03-02T01:17:43.987Z,-1.90
2023-03-02T01:20:14.085Z,-1.80
2023-03-02T01:22:46.417Z,-1.90
2023-03-02T01:25:15.263Z,-1.90
2023-03-02T01:27:44.030Z,-1.90
2023-03-02T01:30:14.062Z,-1.90
2023-03-02T01:32:42.935Z,-1.90
2023-03-02T01:35:11.977Z,-1.90
2023-03-02T01:37:40.726Z,-2.00
2023-03-02T01:40:13.979Z,-2.10
2023-03-02T01:42:51.968Z,-2.20
2023-03-02T01:45:51.779Z,-1.80
2023-03-02T01:48:30.877Z,-1.60
2023-03-02T01:51:01.350Z,-1.50
2023-03-02T01:53:32.828Z,-1.50
2023-03-02T01:56:05.963Z,-1.50
2023-03-02T01:58:38.619Z,-1.50
2023-03-02T02:01:15.623Z,-1.50
2023-03-02T02:03:46.469Z,-1.50
2023-03-02T02:06:20.885Z,-1.50
2023-03-02T02:08:50.744Z,-1.60
2023-03-02T02:11:21.012Z,-1.60
2023-03-02T02:13:56.745Z,-1.80
2023-03-02T02:16:26.240Z,-2.00
2023-03-02T02:18:55.190Z,-2.10
2023-03-02T02:21:26.775Z,-2.20
2023-03-02T02:24:06.190Z,-2.30
2023-03-02T02:26:42.546Z,-2.20
2023-03-02T02:29:14.847Z,-2.20
2023-03-02T02:31:49.502Z,-2.20
2023-03-02T02:34:23.225Z,-2.20
2023-03-02T02:36:57.577Z,-2.20
2023-03-02T02:39:31.542Z,-2.30
2023-03-02T02:42:06.144Z,-2.40
2023-03-02T02:44:35.453Z,-2.40
2023-03-02T02:47:04.582Z,-2.40
2023-03-02T02:49:36.251Z,-2.40
2023-03-02T02:52:07.684Z,-2.40
2023-03-02T02:54:38.657Z,-2.40
2023-03-02T02:57:12.353Z,-2.40
2023-03-02T02:59:46.337Z,-2.40
2023-03-02T03:02:20.538Z,-2.40
2023-03-02T03:04:49.967Z,-2.40
2023-03-02T03:07:22.239Z,-2.50
2023-03-02T03:09:58.694Z,-2.50
2023-03-02T03:12:33.218Z,-2.50
2023-03-02T03:15:03.864Z,-2.50
2023-03-02T03:17:32.962Z,-2.50
2023-03-02T03:20:07.878Z,-2.50
2023-03-02T03:22:40.087Z,-2.40
2023-03-02T03:25:15.514Z,-2.50
2023-03-02T03:27:48.532Z,-2.40
2023-03-02T03:30:18.549Z,-2.20
2023-03-02T03:32:48.372Z,-2.00
2023-03-02T03:35:18.644Z,-1.70
2023-03-02T03:37:48.502Z,-1.60
2023-03-02T03:40:18.247Z,-1.50
2023-03-02T03:42:49.823Z,-1.40
2023-03-02T03:45:18.874Z,-1.30
2023-03-02T03:47:47.599Z,-1.30
2023-03-02T03:50:16.445Z,-1.20
2023-03-02T03:52:46.082Z,-1.10
2023-03-02T03:55:20.851Z,-1.00
2023-03-02T03:57:52.541Z,-1.00
2023-03-02T04:00:22.594Z,-1.00
2023-03-02T04:02:57.582Z,-1.00
2023-03-02T04:05:30.699Z,-1.00
2023-03-02T04:08:02.184Z,-0.90
2023-03-02T04:10:32.277Z,-1.00
2023-03-02T04:13:02.856Z,-0.90
2023-03-02T04:15:32.938Z,-0.90
2023-03-02T04:18:02.431Z,-1.00
2023-03-02T04:20:33.374Z,-1.00
2023-03-02T04:23:02.230Z,-1.00
2023-03-02T04:25:32.312Z,-1.00
2023-03-02T04:28:08.286Z,-1.10
2023-03-02T04:30:39.802Z,-1.10
2023-03-02T04:33:09.029Z,-1.10
2023-03-02T04:35:38.326Z,-1.10
2023-03-02T04:38:07.169Z,-1.10
2023-03-02T04:40:36.084Z,-1.10
2023-03-02T04:43:04.886Z,-1.10
2023-03-02T04:45:35.091Z,-1.10
2023-03-02T04:48:03.899Z,-1.00
2023-03-02T04:50:32.726Z,-1.00
2023-03-02T04:53:01.537Z,-1.00
2023-03-02T04:55:30.396Z,-1.00
2023-03-02T04:57:59.256Z,-1.00
2023-03-02T05:00:28.812Z,-0.90
2023-03-02T05:02:59.031Z,-0.90
2023-03-02T05:05:28.446Z,-0.90
2023-03-02T05:07:58.539Z,-0.90
2023-03-02T05:10:28.303Z,-0.90
2023-03-02T05:13:02.249Z,-0.80
2023-03-02T05:15:33.490Z,-0.80
2023-03-02T05:18:04.787Z,-0.80
2023-03-02T05:20:34.417Z,-0.80
2023-03-02T05:23:08.923Z,-0.80
2023-03-02T05:25:39.099Z,-0.70
2023-03-02T05:28:08.026Z,-0.60
2023-03-02T05:30:37.786Z,-0.60
2023-03-02T05:33:08.289Z,-0.70
2023-03-02T05:35:37.495Z,-0.70
2023-03-02T05:38:06.322Z,-0.70
2023-03-02T05:40:35.392Z,-0.70
2023-03-02T05:43:04.271Z,-0.60
2023-03-02T05:45:35.930Z,-0.60
2023-03-02T05:48:05.747Z,-0.50
2023-03-02T05:50:36.000Z,-0.50
2023-03-02T05:53:05.047Z,-0.60
2023-03-02T05:55:36.827Z,-0.60
2023-03-02T05:58:06.935Z,-0.50
2023-03-02T06:00:35.772Z,-0.60
2023-03-02T06:03:04.908Z,-0.50
2023-03-02T06:05:35.357Z,-0.40
2023-03-02T06:08:05.019Z,-0.40
2023-03-02T06:10:34.421Z,-0.30
2023-03-02T06:13:03.220Z,-0.20
2023-03-02T06:15:32.028Z,-0.20
2023-03-02T06:18:00.815Z,-0.20
2023-03-02T06:20:29.700Z,-0.10
2023-03-02T06:22:59.863Z,0.00
2023-03-02T06:25:28.798Z,0.00
2023-03-02T06:27:57.533Z,0.10
2023-03-02T06:30:27.965Z,0.20
2023-03-02T06:32:56.712Z,0.20
2023-03-02T06:35:25.566Z,0.30
2023-03-02T06:37:54.396Z,0.40
2023-03-02T06:40:24.504Z,0.40
2023-03-02T06:42:53.237Z,0.50
2023-03-02T06:45:22.051Z,0.50
2023-03-02T06:47:50.772Z,0.50
2023-03-02T06:50:19.648Z,0.50
2023-03-02T06:52:48.380Z,0.60
2023-03-02T06:55:17.325Z,0.70
2023-03-02T06:57:47.533Z,0.60
2023-03-02T07:00:17.794Z,0.70
2023-03-02T07:02:46.775Z,0.70
2023-03-02T07:05:15.515Z,0.80
2023-03-02T07:07:44.550Z,0.90
2023-03-02T07:10:13.623Z,0.90
2023-03-02T07:12:42.773Z,1.00
2023-03-02T07:15:14.404Z,1.00
2023-03-02T07:17:44.926Z,1.00
2023-03-02T07:20:15.403Z,1.10
2023-03-02T07:22:45.515Z,1.00
2023-03-02T07:25:14.685Z,1.00
2023-03-02T07:27:43.675Z,1.10
2023-03-02T07:30:15.543Z,1.20
2023-03-02T07:32:44.260Z,1.10
2023-03-02T07:35:13.080Z,1.10
2023-03-02T07:37:41.948Z,1.00
2023-03-02T07:40:12.795Z,1.00
2023-03-02T07:42:41.900Z,1.10
2023-03-02T07:45:13.499Z,1.10
2023-03-02T07:47:42.230Z,1.10
2023-03-02T07:50:12.205Z,1.10
2023-03-02T07:52:40.966Z,1.10
2023-03-02T07:55:10.844Z,1.10
2023-03-02T07:57:39.643Z,1.20
2023-03-02T08:00:09.871Z,1.20
2023-03-02T08:02:43.635Z,1.10
2023-03-02T08:05:13.477Z,1.10
2023-03-02T08:07:42.695Z,1.10
2023-03-02T08:10:12.877Z,1.10
2023-03-02T08:12:42.929Z,1.20
2023-03-02T08:15:12.737Z,1.20
2023-03-02T08:17:42.848Z,1.20
2023-03-02T08:20:12.284Z,1.30
2023-03-02T08:22:41.006Z,1.30
2023-03-02T08:25:10.082Z,1.20
2023-03-02T08:27:40.264Z,1.30
2023-03-02T08:30:10.655Z,1.30
2023-03-02T08:32:39.596Z,1.30
2023-03-02T08:35:11.036Z,1.30
2023-03-02T08:37:39.865Z,1.40
2023-03-02T08:40:09.961Z,1.50
2023-03-02T08:42:38.753Z,1.60
2023-03-02T08:45:08.725Z,1.60
2023-03-02T08:47:37.645Z,1.60
2023-03-02T08:50:07.043Z,1.50
2023-03-02T08:52:37.137Z,1.40
2023-03-02T08:55:07.204Z,1.40
2023-03-02T08:57:36.110Z,1.50
2023-03-02T09:00:08.655Z,1.60
2023-03-02T09:02:37.407Z,1.60
2023-03-02T09:05:06.822Z,1.50
2023-03-02T09:07:37.181Z,1.60
2023-03-02T09:10:06.560Z,1.70
2023-03-02T09:12:35.497Z,1.70
2023-03-02T09:15:04.525Z,1.80
2023-03-02T09:17:33.205Z,1.90
2023-03-02T09:20:01.969Z,2.10
2023-03-02T09:22:31.232Z,2.00
2023-03-02T09:25:01.385Z,2.10
2023-03-02T09:27:30.338Z,2.10
2023-03-02T09:29:59.097Z,2.20
2023-03-02T09:32:28.014Z,2.20
2023-03-02T09:34:56.894Z,2.40
2023-03-02T09:37:26.000Z,2.50
2023-03-02T09:39:54.735Z,2.60
2023-03-02T09:43:02.660Z,2.60
2023-03-02T09:46:08.032Z,2.70
2023-03-02T09:48:41.726Z,2.60
2023-03-02T09:51:32.489Z,2.60
2023-03-02T09:54:10.419Z,2.60
2023-03-02T09:56:43.715Z,2.50
2023-03-02T09:59:24.042Z,2.60
2023-03-02T10:02:01.322Z,2.50
2023-03-02T10:04:32.709Z,2.60
2023-03-02T10:07:12.750Z,2.60
2023-03-02T10:09:42.573Z,2.60
2023-03-02T10:12:38.417Z,2.40
2023-03-02T10:15:15.505Z,2.40
2023-03-02T10:17:57.582Z,2.40
2023-03-02T10:20:34.075Z,2.80
2023-03-02T10:23:22.831Z,2.80
2023-03-02T10:25:55.346Z,2.90
2023-03-02T10:28:28.502Z,3.00
2023-03-02T10:31:08.018Z,2.90
2023-03-02T10:33:38.650Z,2.50
2023-03-02T10:36:20.636Z,2.50
2023-03-02T10:38:49.729Z,2.50
2023-03-02T10:41:24.049Z,2.50
2023-03-02T10:43:55.735Z,2.50
2023-03-02T10:46:26.151Z,2.80
2023-03-02T10:48:58.209Z,2.70
2023-03-02T10:51:29.341Z,2.80
2023-03-02T10:54:11.287Z,2.90
2023-03-02T10:56:42.744Z,3.10
2023-03-02T10:59:43.596Z,3.20
2023-03-02T11:02:23.193Z,3.10
2023-03-02T11:04:57.788Z,3.10
2023-03-02T11:07:28.240Z,3.10
2023-03-02T11:10:02.953Z,3.10
2023-03-02T11:12:33.202Z,3.20
2023-03-02T11:15:19.007Z,3.20
2023-03-02T11:17:53.729Z,3.20
2023-03-02T11:20:26.410Z,3.10
2023-03-02T11:23:14.314Z,3.30
2023-03-02T11:25:48.698Z,3.40
2023-03-02T11:28:31.857Z,3.10
2023-03-02T11:31:03.816Z,2.90
2023-03-02T11:33:40.426Z,2.80
2023-03-02T11:36:17.109Z,2.90
2023-03-02T11:38:49.914Z,3.40
2023-03-02T11:41:29.912Z,3.20
2023-03-02T11:44:02.453Z,3.30
2023-03-02T11:46:33.767Z,3.30
2023-03-02T11:49:08.311Z,3.30
2023-03-02T11:51:47.128Z,3.30
2023-03-02T11:54:34.002Z,3.40
2023-03-02T11:57:02.824Z,3.20
2023-03-02T11:59:32.976Z,3.00
2023-03-02T12:02:02.764Z,2.80
2023-03-02T12:04:35.916Z,2.80
2023-03-02T12:07:18.032Z,3.00
2023-03-02T12:09:58.605Z,3.10
2023-03-02T12:12:37.258Z,3.10
2023-03-02T12:15:35.253Z,3.10
2023-03-02T12:18:04.170Z,3.30
2023-03-02T12:20:34.354Z,3.30
2023-03-02T12:23:24.277Z,3.20
2023-03-02T12:26:05.876Z,3.00
2023-03-02T12:28:37.771Z,3.10
2023-03-02T12:31:13.127Z,3.10
2023-03-02T12:33:50.334Z,3.10
2023-03-02T12:36:28.560Z,3.10
2023-03-02T12:39:26.807Z,3.10
2023-03-02T12:42:21.761Z,3.20
2023-03-02T12:44:58.307Z,3.20
2023-03-02T12:47:30.261Z,3.20
2023-03-02T12:50:03.189Z,3.30
2023-03-02T12:52:35.332Z,3.40
2023-03-02T12:55:07.535Z,3.30
2023-03-02T12:57:40.249Z,3.10
2023-03-02T13:00:17.724Z,3.00
2023-03-02T13:02:49.162Z,3.10
2023-03-02T13:05:21.244Z,3.30
2023-03-02T13:07:59.642Z,3.40
2023-03-02T13:10:37.177Z,3.50
2023-03-02T13:13:19.424Z,3.50
2023-03-02T13:15:52.955Z,3.30
2023-03-02T13:18:22.696Z,3.20
2023-03-02T13:20:52.670Z,2.90
2023-03-02T13:23:23.093Z,2.90
2023-03-02T13:25:53.344Z,3.20
2023-03-02T13:28:29.921Z,3.30
2023-03-02T13:31:00.994Z,3.30
2023-03-02T13:33:31.624Z,3.10
2023-03-02T13:36:01.280Z,3.00
2023-03-02T13:38:36.929Z,2.70
2023-03-02T13:41:05.952Z,2.90
2023-03-02T13:43:40.071Z,2.90
2023-03-02T13:46:28.746Z,2.90
2023-03-02T13:49:14.480Z,2.90
2023-03-02T13:51:46.340Z,3.10
2023-03-02T13:54:22.201Z,3.10
2023-03-02T13:56:52.277Z,2.90
2023-03-02T13:59:22.689Z,2.90
2023-03-02T14:01:51.740Z,3.00
2023-03-02T14:04:23.438Z,3.10
2023-03-02T14:06:53.266Z,3.10
2023-03-02T14:09:23.442Z,3.10
2023-03-02T14:11:54.307Z,3.10
2023-03-02T14:14:26.072Z,2.90
2023-03-02T14:16:54.821Z,3.00
2023-03-02T14:19:23.672Z,3.10
2023-03-02T14:21:52.453Z,3.20
2023-03-02T14:24:22.743Z,3.20
2023-03-02T14:26:51.613Z,3.20
2023-03-02T14:29:26.112Z,3.20
2023-03-02T14:31:55.634Z,3.10
2023-03-02T14:34:24.753Z,3.10
2023-03-02T14:36:55.637Z,3.00
2023-03-02T14:39:33.237Z,2.90
2023-03-02T14:42:02.096Z,2.60
2023-03-02T14:44:31.213Z,2.90
2023-03-02T14:47:00.043Z,2.80
2023-03-02T14:49:28.937Z,2.90
2023-03-02T14:52:02.143Z,2.70
2023-03-02T14:54:39.439Z,2.60
2023-03-02T14:57:18.073Z,2.60
2023-03-02T14:59:46.909Z,2.50
2023-03-02T15:02:25.209Z,2.60
2023-03-02T15:04:57.248Z,2.70
2023-03-02T15:07:27.561Z,2.50
2023-03-02T15:09:58.669Z,2.40
2023-03-02T15:12:27.644Z,2.40
2023-03-02T15:14:56.427Z,2.40
2023-03-02T15:17:25.170Z,2.20
2023-03-02T15:19:54.162Z,2.10
2023-03-02T15:22:23.030Z,2.00
2023-03-02T15:24:51.844Z,2.10
2023-03-02T15:27:23.090Z,2.10
2023-03-02T15:29:52.145Z,2.10
2023-03-02T15:32:21.007Z,2.20
2023-03-02T15:34:49.866Z,2.50
2023-03-02T15:37:18.661Z,2.50
2023-03-02T15:39:47.482Z,2.50
2023-03-02T15:42:16.201Z,2.60
2023-03-02T15:44:46.409Z,2.40
2023-03-02T15:47:15.396Z,2.20
2023-03-02T15:49:44.270Z,2.10
2023-03-02T15:52:13.525Z,2.00
2023-03-02T15:54:42.358Z,2.00
2023-03-02T15:57:11.561Z,1.90
2023-03-02T15:59:40.276Z,2.00
2023-03-02T16:02:11.486Z,2.20
2023-03-02T16:04:40.342Z,2.30
2023-03-02T16:07:09.068Z,2.40
2023-03-02T16:09:37.832Z,2.30
2023-03-02T16:12:07.233Z,2.30
2023-03-02T16:14:35.962Z,2.20
2023-03-02T16:17:04.811Z,2.40
2023-03-02T16:19:35.014Z,2.40
2023-03-02T16:22:03.760Z,2.30
2023-03-02T16:24:32.543Z,2.50
2023-03-02T16:27:01.275Z,2.50
2023-03-02T16:29:31.084Z,2.40
2023-03-02T16:31:59.931Z,2.40
2023-03-02T16:34:28.888Z,2.20
2023-03-02T16:36:58.996Z,2.10
2023-03-02T16:39:27.889Z,2.00
2023-03-02T16:41:56.638Z,2.00
2023-03-02T16:44:25.758Z,2.00
2023-03-02T16:46:57.005Z,2.00
2023-03-02T16:49:26.056Z,1.90
2023-03-02T16:51:59.607Z,1.90
2023-03-02T16:54:28.921Z,1.80
2023-03-02T16:56:57.647Z,1.90
2023-03-02T16:59:26.365Z,1.80
2023-03-02T17:01:55.205Z,1.80
2023-03-02T17:04:24.028Z,1.80
2023-03-02T17:07:01.176Z,1.70
2023-03-02T17:09:33.222Z,1.70
2023-03-02T17:12:02.278Z,1.70
2023-03-02T17:14:31.046Z,1.60
2023-03-02T17:16:59.835Z,1.70
2023-03-02T17:19:29.739Z,1.60
2023-03-02T17:21:59.432Z,1.60
2023-03-02T17:24:28.787Z,1.70
2023-03-02T17:26:59.322Z,1.70
2023-03-02T17:29:28.276Z,1.80
2023-03-02T17:31:57.302Z,1.80
2023-03-02T17:34:30.581Z,1.80
2023-03-02T17:37:00.614Z,1.70
2023-03-02T17:39:29.855Z,1.70
2023-03-02T17:42:00.032Z,1.50
2023-03-02T17:44:28.928Z,1.50
2023-03-02T17:46:57.758Z,1.50
2023-03-02T17:49:26.693Z,1.60
2023-03-02T17:51:55.776Z,1.60
2023-03-02T17:54:24.646Z,1.70
2023-03-02T17:56:53.475Z,1.60
2023-03-02T17:59:23.830Z,1.60
2023-03-02T18:01:52.676Z,1.50
2023-03-02T18:04:21.544Z,1.50
2023-03-02T18:06:51.916Z,1.50
2023-03-02T18:09:21.921Z,1.40
2023-03-02T18:11:50.700Z,1.70
2023-03-02T18:14:21.562Z,1.90
2023-03-02T18:16:51.806Z,1.90
2023-03-02T18:19:20.714Z,1.80
2023-03-02T18:21:49.645Z,1.70
2023-03-02T18:24:18.554Z,1.60
2023-03-02T18:26:47.317Z,1.70
2023-03-02T18:29:16.381Z,1.50
2023-03-02T18:31:45.947Z,1.60
2023-03-02T18:34:16.503Z,1.50
2023-03-02T18:36:45.551Z,1.60
2023-03-02T18:39:14.629Z,1.50
2023-03-02T18:41:43.762Z,1.60
2023-03-02T18:44:13.000Z,1.60
2023-03-02T18:46:41.906Z,1.50
2023-03-02T18:49:10.660Z,1.40
2023-03-02T18:51:40.822Z,1.20
2023-03-02T18:54:09.706Z,1.10
2023-03-02T18:56:40.532Z,1.00
2023-03-02T18:59:09.889Z,0.90
2023-03-02T19:01:38.672Z,0.90
2023-03-02T19:04:08.044Z,0.90
2023-03-02T19:06:36.765Z,0.90
2023-03-02T19:09:06.930Z,0.90
2023-03-02T19:11:35.919Z,0.80
2023-03-02T19:14:04.676Z,0.80
2023-03-02T19:16:33.623Z,0.80
2023-03-02T19:19:02.414Z,0.70
2023-03-02T19:21:31.169Z,0.70
2023-03-02T19:24:01.661Z,0.70
2023-03-02T19:26:32.258Z,0.90
2023-03-02T19:29:01.364Z,0.90
2023-03-02T19:31:31.295Z,0.80
2023-03-02T19:34:00.768Z,0.80
2023-03-02T19:36:29.571Z,0.80
2023-03-02T19:38:58.293Z,0.80
2023-03-02T19:41:27.181Z,0.80
2023-03-02T19:43:57.377Z,0.80
2023-03-02T19:46:26.190Z,0.80
2023-03-02T19:48:55.042Z,0.90
2023-03-02T19:51:23.750Z,0.90
2023-03-02T19:53:52.941Z,0.90
2023-03-02T19:56:22.705Z,0.80
2023-03-02T19:58:54.007Z,0.80
2023-03-02T20:01:27.841Z,0.90
2023-03-02T20:03:57.860Z,0.90
2023-03-02T20:06:31.208Z,0.80
2023-03-02T20:09:02.478Z,1.00
2023-03-02T20:11:32.236Z,1.00
2023-03-02T20:14:02.192Z,1.00
2023-03-02T20:16:35.669Z,0.90
2023-03-02T20:19:05.497Z,0.80
2023-03-02T20:21:35.970Z,0.80
2023-03-02T20:24:05.561Z,0.80
2023-03-02T20:26:34.459Z,0.80
2023-03-02T20:29:05.369Z,0.80
2023-03-02T20:31:36.723Z,0.80
2023-03-02T20:34:08.490Z,0.80
2023-03-02T20:36:38.528Z,1.10
2023-03-02T20:39:11.798Z,1.10
2023-03-02T20:41:41.064Z,1.00
2023-03-02T20:44:11.518Z,0.90
2023-03-02T20:46:47.272Z,0.80
2023-03-02T20:49:16.911Z,0.80
2023-03-02T20:51:52.703Z,0.80
2023-03-02T20:54:22.752Z,0.80
2023-03-02T20:56:52.228Z,0.80
2023-03-02T20:59:22.309Z,0.80
2023-03-02T21:01:53.391Z,0.90
2023-03-02T21:04:23.866Z,0.90
2023-03-02T21:06:53.204Z,1.00
2023-03-02T21:09:22.125Z,1.10
2023-03-02T21:11:51.142Z,1.00
2023-03-02T21:14:20.393Z,0.90
2023-03-02T21:16:49.208Z,0.80
2023-03-02T21:19:20.433Z,0.70
2023-03-02T21:21:49.441Z,0.70
2023-03-02T21:24:18.296Z,0.70
2023-03-02T21:26:48.707Z,0.80
2023-03-02T21:29:20.937Z,0.80
2023-03-02T21:31:50.244Z,0.80
2023-03-02T21:34:22.330Z,0.70
2023-03-02T21:36:53.784Z,0.70
2023-03-02T21:39:23.635Z,0.60
2023-03-02T21:41:53.384Z,0.60
2023-03-02T21:44:22.237Z,0.60
2023-03-02T21:46:52.025Z,0.50
2023-03-02T21:49:23.993Z,0.60
2023-03-02T21:51:52.907Z,0.70
2023-03-02T21:54:22.018Z,0.80
2023-03-02T21:56:50.985Z,0.80
2023-03-02T21:59:19.780Z,0.70
2023-03-02T22:01:48.602Z,0.70
2023-03-02T22:04:17.542Z,0.80
2023-03-02T22:06:47.718Z,0.70
2023-03-02T22:09:16.656Z,0.70
2023-03-02T22:11:46.480Z,0.70
2023-03-02T22:14:17.828Z,0.60
2023-03-02T22:16:48.313Z,0.50
2023-03-02T22:19:26.992Z,0.50
2023-03-02T22:21:59.922Z,0.40
2023-03-02T22:24:30.036Z,0.60
2023-03-02T22:27:01.368Z,0.70
2023-03-02T22:29:33.137Z,0.70
2023-03-02T22:32:15.792Z,0.60
2023-03-02T22:34:46.307Z,0.50
2023-03-02T22:37:19.030Z,0.50
2023-03-02T22:39:49.173Z,0.50
2023-03-02T22:42:19.771Z,0.50
2023-03-02T22:44:56.554Z,0.40
2023-03-02T22:47:25.775Z,0.40
2023-03-02T22:49:58.893Z,0.30
2023-03-02T22:52:39.261Z,0.30
2023-03-02T22:55:31.570Z,0.20
2023-03-02T22:58:24.879Z,0.30
2023-03-02T23:00:53.903Z,0.30
2023-03-02T23:03:24.832Z,0.20
2023-03-02T23:05:55.279Z,0.10
2023-03-02T23:08:28.348Z,0.10
2023-03-02T23:10:58.938Z,0.00
2023-03-02T23:13:37.659Z,0.00
2023-03-02T23:16:16.327Z,0.20
2023-03-02T23:18:45.325Z,0.20
2023-03-02T23:21:18.488Z,0.20
2023-03-02T23:23:49.758Z,0.20
2023-03-02T23:26:19.891Z,0.00
2023-03-02T23:28:50.330Z,-0.10
2023-03-02T23:31:19.560Z,-0.10
2023-03-02T23:33:48.784Z,0.00
2023-03-02T23:36:17.768Z,0.10
2023-03-02T23:38:46.556Z,0.00
2023-03-02T23:41:17.318Z,-0.10
2023-03-02T23:43:46.283Z,-0.20
2023-03-02T23:46:15.215Z,-0.20
2023-03-02T23:48:44.522Z,-0.30
2023-03-02T23:51:13.354Z,-0.20
2023-03-02T23:53:42.274Z,-0.30
2023-03-02T23:56:11.388Z,-0.30
2023-03-02T23:58:42.082Z,-0.20
